Time;durP1;ratioP1;P1;durP2;ratioP2;P2;SDS_P1;SDS_P2;PMS_P1;PMS_P2;Temp;Humidity;BMP_temperature;BMP_pressure;BME280_temperature;BME280_humidity;BME280_pressure;Samples;Min_cycle;Max_cycle;Signal;HPM_P1;HPM_P2
2023/03/17 00:01:50;;;;;;;1.33;1.27;;;;;;;3.91;47.27;100813.53;5327656;26;34183;-84
2023/03/17 00:04:18;;;;;;;1.45;1.35;;;;;;;3.88;47.72;100818.72;5325447;26;32131;-83
2023/03/17 00:06:46;;;;;;;2.22;2.12;;;;;;;3.91;47.71;100817.00;5327344;26;33970;-84
2023/03/17 00:09:16;;;;;;;0.88;0.88;;;;;;;3.91;47.73;100826.59;5343550;26;34042;-84
2023/03/17 00:11:45;;;;;;;4.37;2.55;;;;;;;3.83;47.58;100814.38;5327078;26;33921;-83
2023/03/17 00:14:13;;;;;;;0.10;0.10;;;;;;;3.82;47.49;100823.09;5324640;26;32613;-84
2023/03/17 00:16:43;;;;;;;1.55;1.45;;;;;;;3.90;47.17;100814.41;5365103;26;33667;-84
2023/03/17 00:19:28;;;;;;;0.75;0.62;;;;;;;3.83;47.19;100811.75;5306642;26;32562;-84
2023/03/17 00:21:57;;;;;;;0.10;0.10;;;;;;;3.67;48.14;100817.88;5309137;26;34074;-84
2023/03/17 00:24:31;;;;;;;2.17;1.27;;;;;;;3.70;47.83;100811.75;5306420;26;34459;-84
2023/03/17 00:26:58;;;;;;;2.05;1.25;;;;;;;3.60;47.67;100805.66;5327199;26;33616;-84
2023/03/17 00:29:26;;;;;;;1.20;1.10;;;;;;;3.61;47.70;100812.66;5342829;26;33636;-84
2023/03/17 00:31:56;;;;;;;0.73;0.73;;;;;;;3.63;48.19;100810.03;5327102;26;33082;-84
2023/03/17 00:34:23;;;;;;;8.50;1.87;;;;;;;3.61;48.30;100812.66;5324268;26;33928;-84
2023/03/17 00:36:52;;;;;;;0.70;0.70;;;;;;;3.62;48.09;100806.56;5327181;26;32521;-84
2023/03/17 00:39:24;;;;;;;2.08;1.95;;;;;;;3.53;47.92;100806.53;5306340;26;35340;-84
2023/03/17 00:41:53;;;;;;;0.82;0.82;;;;;;;3.52;47.67;100807.41;5328486;26;34031;-84
2023/03/17 00:44:21;;;;;;;0.65;0.65;;;;;;;3.39;48.07;100801.28;5306234;26;33709;-84
2023/03/17 00:46:49;;;;;;;0.52;0.52;;;;;;;3.47;48.10;100803.94;5327041;26;35129;-84
2023/03/17 00:49:20;;;;;;;1.60;1.50;;;;;;;3.41;48.30;100796.06;5325355;26;33704;-86
2023/03/17 00:51:48;;;;;;;0.30;0.30;;;;;;;3.36;48.80;100800.41;5327241;26;34321;-86
2023/03/17 00:54:18;;;;;;;0.28;0.28;;;;;;;3.32;49.18;100795.22;5305892;26;32853;-87
2023/03/17 00:56:47;;;;;;;2.03;1.92;;;;;;;3.38;49.12;100783.91;5327288;26;34253;-87
2023/03/17 00:59:18;;;;;;;1.00;1.00;;;;;;;3.34;49.27;100787.38;5343141;26;34385;-88
2023/03/17 01:01:46;;;;;;;1.73;1.62;;;;;;;3.32;49.21;100784.75;5327062;26;34329;-87
2023/03/17 01:04:14;;;;;;;0.62;0.62;;;;;;;3.28;49.21;100797.81;5325053;26;33290;-86
2023/03/17 01:06:42;;;;;;;0.98;0.93;;;;;;;3.48;48.66;100790.00;5327251;26;34206;-87
2023/03/17 01:09:13;;;;;;;1.15;1.05;;;;;;;3.68;47.58;100788.25;5324730;26;33667;-87
2023/03/17 01:11:41;;;;;;;0.98;0.93;;;;;;;3.68;47.30;100796.09;5326180;26;33605;-86
2023/03/17 01:14:11;;;;;;;0.10;0.10;;;;;;;3.24;48.34;100790.84;5325011;26;32671;-87
2023/03/17 01:16:39;;;;;;;0.30;0.30;;;;;;;3.07;49.20;100796.00;5327003;26;33977;-86
2023/03/17 01:19:08;;;;;;;1.52;0.70;;;;;;;3.27;49.44;100796.91;5324871;26;34671;-86
2023/03/17 01:21:37;;;;;;;0.10;0.10;;;;;;;3.32;49.23;100796.91;5327715;26;33694;-87
2023/03/17 01:24:05;;;;;;;0.57;0.57;;;;;;;3.32;49.25;100797.81;5324672;26;34078;-87
2023/03/17 01:26:32;;;;;;;0.68;0.68;;;;;;;3.28;49.54;100792.59;5327319;26;34399;-86
2023/03/17 01:29:00;;;;;;;0.00;0.00;;;;;;;3.26;48.94;100795.16;5324636;26;33390;-86
2023/03/17 01:31:28;;;;;;;0.35;0.35;;;;;;;3.18;49.24;100801.22;5326951;26;34002;-86
2023/03/17 01:33:56;;;;;;;5.93;0.70;;;;;;;3.18;49.47;100798.63;5343260;26;34044;-87
2023/03/17 01:36:25;;;;;;;0.20;0.20;;;;;;;3.04;49.95;100796.00;5327537;26;33384;-87
2023/03/17 01:38:52;;;;;;;1.25;1.15;;;;;;;3.15;49.58;100796.03;5324693;26;33685;-84
2023/03/17 01:41:20;;;;;;;1.15;0.15;;;;;;;3.07;49.47;100798.59;5327028;26;33662;-83
2023/03/17 01:43:48;;;;;;;0.00;0.00;;;;;;;3.04;49.49;100796.00;5324881;26;32415;-86
2023/03/17 01:46:26;;;;;;;0.22;0.22;;;;;;;3.17;49.09;100795.16;5326431;26;32671;-86
2023/03/17 01:49:04;;;;;;;0.13;0.13;;;;;;;3.16;49.17;100798.63;5343805;26;34031;-86
2023/03/17 01:52:05;;;;;;;0.00;0.00;;;;;;;3.16;49.26;100809.06;5345682;26;34375;-86
2023/03/17 01:55:03;;;;;;;0.20;0.20;;;;;;;3.06;49.60;100813.41;5333807;26;33425;-86
2023/03/17 01:57:52;;;;;;;0.32;0.32;;;;;;;3.15;49.24;100796.91;5326269;26;34039;-86
2023/03/17 02:00:23;;;;;;;2.90;2.70;;;;;;;3.07;49.57;100790.78;5323882;26;32903;-86
2023/03/17 02:02:54;;;;;;;0.77;0.77;;;;;;;3.05;49.76;100784.69;5345404;26;33961;-86
2023/03/17 02:05:24;;;;;;;0.43;0.43;;;;;;;3.05;49.87;100785.56;5306229;26;32399;-87
2023/03/17 02:07:54;;;;;;;0.57;0.57;;;;;;;2.94;50.49;100783.78;5307908;26;33015;-86
2023/03/17 02:10:26;;;;;;;0.40;0.40;;;;;;;3.02;50.05;100797.72;5285683;26;32738;-86
2023/03/17 02:12:57;;;;;;;1.33;0.98;;;;;;;3.01;49.39;100806.44;5305802;26;34110;-86
2023/03/17 02:15:39;;;;;;;3.20;1.35;;;;;;;2.85;49.48;100807.22;5322608;26;32958;-86
2023/03/17 02:18:08;;;;;;;0.32;0.32;;;;;;;2.79;49.48;100816.75;5308752;26;34502;-86
2023/03/17 02:20:36;;;;;;;2.05;1.85;;;;;;;2.77;49.84;100826.34;5324369;26;34096;-86
2023/03/17 02:23:05;;;;;;;2.83;2.37;;;;;;;2.74;50.44;100836.75;5326747;26;32717;-85
2023/03/17 02:25:35;;;;;;;0.35;0.35;;;;;;;2.70;50.23;100842.81;5322896;26;32374;-86
2023/03/17 02:28:09;;;;;;;2.03;1.60;;;;;;;2.86;49.78;100829.84;5326857;26;32343;-85
2023/03/17 02:30:37;;;;;;;4.87;1.15;;;;;;;2.84;49.83;100837.66;5341852;26;33815;-85
2023/03/17 02:33:05;;;;;;;0.85;0.85;;;;;;;2.82;49.75;100845.47;5327083;26;33720;-85
2023/03/17 02:35:34;;;;;;;0.30;0.30;;;;;;;2.70;50.42;100855.84;5305942;26;32093;-85
2023/03/17 02:38:02;;;;;;;0.13;0.13;;;;;;;2.82;50.14;100849.84;5327233;26;34509;-85
2023/03/17 02:40:30;;;;;;;1.17;1.12;;;;;;;2.78;50.31;100841.13;5324473;26;34375;-85
2023/03/17 02:42:58;;;;;;;0.32;0.32;;;;;;;2.72;50.51;100843.69;5308836;26;34207;-85
2023/03/17 02:45:28;;;;;;;0.52;0.52;;;;;;;2.72;50.26;100848.06;5342761;26;33512;-85
2023/03/17 02:47:56;;;;;;;1.37;1.35;;;;;;;2.58;50.93;100847.09;5326691;26;33468;-85
2023/03/17 02:50:26;;;;;;;2.55;2.17;;;;;;;2.97;49.01;100833.37;5323675;26;34677;-85
2023/03/17 02:52:55;;;;;;;0.20;0.20;;;;;;;2.68;49.67;100825.41;5326842;26;33703;-85
2023/03/17 02:55:22;;;;;;;0.30;0.30;;;;;;;2.58;49.88;100829.72;5342868;26;33131;-85
2023/03/17 02:57:50;;;;;;;0.85;0.85;;;;;;;2.60;49.81;100833.19;5308601;26;34256;-85
2023/03/17 03:00:18;;;;;;;2.58;2.17;;;;;;;2.63;49.70;100838.44;5324338;26;33460;-85
2023/03/17 03:02:46;;;;;;;0.85;0.85;;;;;;;2.50;49.83;100837.50;5308592;26;33823;-84
2023/03/17 03:05:13;;;;;;;0.15;0.15;;;;;;;2.35;50.29;100840.00;5324026;26;33930;-84
2023/03/17 03:07:42;;;;;;;0.28;0.28;;;;;;;2.27;50.73;100833.87;5326406;26;33257;-86
2023/03/17 03:10:10;;;;;;;1.35;1.25;;;;;;;2.39;50.77;100838.31;5323906;26;33019;-83
2023/03/17 03:12:38;;;;;;;0.70;0.70;;;;;;;2.31;51.16;100836.50;5327229;26;33708;-83
2023/03/17 03:15:08;;;;;;;0.00;0.00;;;;;;;2.40;51.32;100840.03;5324324;26;33517;-83
2023/03/17 03:17:36;;;;;;;0.00;0.00;;;;;;;2.50;51.02;100840.09;5326315;26;32717;-83
2023/03/17 03:20:04;;;;;;;0.20;0.20;;;;;;;2.38;51.33;100833.97;5343079;26;33614;-83
2023/03/17 03:22:32;;;;;;;0.45;0.45;;;;;;;2.50;51.03;100823.59;5328078;26;34238;-83
2023/03/17 03:24:59;;;;;;;0.15;0.15;;;;;;;2.46;51.03;100827.91;5324579;26;32372;-83
2023/03/17 03:27:27;;;;;;;0.00;0.00;;;;;;;2.33;51.03;100828.72;5309305;26;33227;-83
2023/03/17 03:29:56;;;;;;;0.20;0.20;;;;;;;2.26;50.97;100827.78;5306101;26;32988;-82
2023/03/17 03:32:24;;;;;;;0.35;0.35;;;;;;;2.22;51.13;100828.62;5327678;26;33868;-83
2023/03/17 03:34:52;;;;;;;0.03;0.03;;;;;;;2.36;50.96;100833.06;5325052;26;32328;-83
2023/03/17 03:37:20;;;;;;;0.50;0.50;;;;;;;2.31;50.65;100826.06;5345655;26;34192;-82
2023/03/17 03:39:48;;;;;;;1.10;0.93;;;;;;;2.36;50.12;100827.84;5343470;26;33693;-83
2023/03/17 03:42:15;;;;;;;0.40;0.37;;;;;;;2.35;50.49;100826.97;5345977;26;33590;-82
2023/03/17 03:44:43;;;;;;;2.83;1.70;;;;;;;2.34;50.43;100819.16;5324649;26;33206;-82
2023/03/17 03:47:11;;;;;;;2.85;2.40;;;;;;;2.39;50.09;100827.88;5309091;26;33741;-83
2023/03/17 03:49:38;;;;;;;1.17;1.17;;;;;;;2.31;50.11;100826.06;5325024;26;33716;-83
2023/03/17 03:52:06;;;;;;;0.00;0.00;;;;;;;2.11;51.03;100826.81;5309502;26;32579;-83
2023/03/17 03:54:34;;;;;;;0.20;0.20;;;;;;;2.08;51.37;100827.66;5342625;26;33322;-84
2023/03/17 03:57:02;;;;;;;0.40;0.40;;;;;;;2.20;51.07;100822.53;5345959;26;33420;-84
2023/03/17 03:59:30;;;;;;;0.43;0.43;;;;;;;2.01;51.44;100815.47;5325099;26;34691;-84
2023/03/17 04:01:58;;;;;;;0.00;0.00;;;;;;;2.17;51.11;100819.91;5327269;26;34466;-84
2023/03/17 04:04:26;;;;;;;0.30;0.30;;;;;;;2.14;51.79;100819.91;5343172;26;33575;-83
2023/03/17 04:06:53;;;;;;;0.00;0.00;;;;;;;2.14;51.69;100816.44;5309244;26;32917;-84
2023/03/17 04:09:21;;;;;;;0.47;0.47;;;;;;;2.24;51.32;100821.72;5343310;26;33304;-85
2023/03/17 04:11:49;;;;;;;0.28;0.28;;;;;;;2.25;50.86;100815.63;5309479;26;33330;-85
2023/03/17 04:14:17;;;;;;;0.10;0.10;;;;;;;2.02;51.29;100814.59;5324477;26;32546;-85
2023/03/17 04:16:45;;;;;;;0.00;0.00;;;;;;;2.10;51.16;100819.87;5327783;26;33726;-86
2023/03/17 04:19:14;;;;;;;0.40;0.40;;;;;;;1.95;51.86;100818.91;5325118;26;33588;-85
2023/03/17 04:21:42;;;;;;;0.40;0.40;;;;;;;1.96;52.08;100814.56;5345837;26;34094;-85
2023/03/17 04:24:09;;;;;;;0.30;0.30;;;;;;;2.05;51.58;100812.87;5343212;26;33739;-85
2023/03/17 04:26:37;;;;;;;1.10;0.52;;;;;;;1.96;51.49;100824.97;5327666;26;32401;-86
2023/03/17 04:29:07;;;;;;;0.08;0.08;;;;;;;2.12;51.14;100823.34;5323841;26;33580;-86
2023/03/17 04:31:35;;;;;;;1.10;0.75;;;;;;;1.96;51.36;100818.03;5327708;26;33531;-85
2023/03/17 04:34:03;;;;;;;1.10;0.93;;;;;;;2.01;51.24;100820.66;5324749;26;32165;-85
2023/03/17 04:36:31;;;;;;;0.90;0.88;;;;;;;2.03;51.29;100814.59;5327135;26;34562;-85
2023/03/17 04:39:00;;;;;;;1.70;1.60;;;;;;;2.04;51.33;100815.47;5324745;26;33596;-85
2023/03/17 04:41:28;;;;;;;0.10;0.10;;;;;;;2.14;50.96;100822.50;5345793;26;32938;-85
2023/03/17 04:43:56;;;;;;;0.32;0.30;;;;;;;1.86;51.85;100823.16;5306525;26;32886;-85
2023/03/17 04:46:24;;;;;;;0.20;0.20;;;;;;;1.93;52.00;100822.34;5327384;26;32584;-85
2023/03/17 04:48:52;;;;;;;0.22;0.22;;;;;;;1.92;51.88;100821.47;5323985;26;32943;-85
2023/03/17 04:51:20;;;;;;;0.00;0.00;;;;;;;1.91;51.80;100829.28;5345937;26;33195;-86
2023/03/17 04:53:47;;;;;;;0.68;0.68;;;;;;;2.00;51.54;100832.84;5324715;26;33464;-84
2023/03/17 04:56:15;;;;;;;0.03;0.03;;;;;;;2.08;51.06;100827.66;5345540;26;34679;-85
2023/03/17 04:58:44;;;;;;;0.75;0.75;;;;;;;2.09;50.63;100839.84;5306704;26;33056;-84
2023/03/17 05:01:12;;;;;;;0.45;0.45;;;;;;;1.98;50.89;100838.88;5326677;26;33111;-84
2023/03/17 05:03:40;;;;;;;0.10;0.10;;;;;;;1.91;51.28;100839.69;5325046;26;33400;-84
2023/03/17 05:06:07;;;;;;;0.10;0.10;;;;;;;1.91;51.87;100835.34;5326819;26;32241;-84
2023/03/17 05:08:35;;;;;;;0.32;0.32;;;;;;;1.89;51.77;100838.78;5306286;26;34258;-84
2023/03/17 05:11:03;;;;;;;0.17;0.17;;;;;;;1.89;51.85;100844.00;5345476;26;33915;-83
2023/03/17 05:13:31;;;;;;;0.68;0.65;;;;;;;1.88;52.05;100840.53;5325012;26;32741;-84
2023/03/17 05:16:00;;;;;;;0.20;0.20;;;;;;;1.92;51.99;100841.44;5308707;26;32684;-84
2023/03/17 05:18:29;;;;;;;0.05;0.05;;;;;;;1.96;51.92;100838.00;5324989;26;33233;-84
2023/03/17 05:20:56;;;;;;;0.52;0.52;;;;;;;1.93;51.83;100844.03;5327380;26;33608;-86
2023/03/17 05:23:25;;;;;;;0.25;0.25;;;;;;;1.95;51.90;100850.16;5325361;26;32467;-85
2023/03/17 05:25:53;;;;;;;0.43;0.43;;;;;;;1.84;51.83;100848.31;5308264;26;32857;-85
2023/03/17 05:28:21;;;;;;;0.45;0.45;;;;;;;1.72;52.28;100847.34;5325628;26;34625;-84
2023/03/17 05:30:49;;;;;;;6.93;0.52;;;;;;;1.88;52.34;100848.34;5342769;26;33870;-84
2023/03/17 05:33:17;;;;;;;0.47;0.47;;;;;;;2.01;52.12;100849.31;5326022;26;33937;-84
2023/03/17 05:35:46;;;;;;;0.10;0.10;;;;;;;2.12;51.93;100850.28;5325658;26;35208;-85
2023/03/17 05:38:14;;;;;;;0.10;0.10;;;;;;;2.09;52.29;100851.97;5345109;26;34032;-84
2023/03/17 05:40:43;;;;;;;0.03;0.03;;;;;;;2.21;51.71;100858.16;5325392;26;33932;-85
2023/03/17 05:43:11;;;;;;;0.45;0.45;;;;;;;2.24;51.53;100854.72;5323816;26;32341;-85
2023/03/17 05:45:38;;;;;;;0.65;0.40;;;;;;;2.26;51.61;100859.06;5339596;26;33681;-84
2023/03/17 05:48:07;;;;;;;0.00;0.00;;;;;;;2.40;51.46;100845.25;5324371;26;33932;-84
2023/03/17 05:50:35;;;;;;;0.03;0.03;;;;;;;2.39;51.77;100838.31;5302179;26;33614;-83
2023/03/17 05:53:02;;;;;;;0.50;0.50;;;;;;;2.38;51.37;100844.38;5323868;26;34074;-84
2023/03/17 05:55:30;;;;;;;3.58;1.60;;;;;;;2.28;51.10;100840.84;5339809;26;33402;-83
2023/03/17 05:57:59;;;;;;;0.80;0.80;;;;;;;2.39;50.95;100839.16;5323668;26;32882;-84
2023/03/17 06:00:27;;;;;;;0.70;0.70;;;;;;;2.58;50.65;100847.09;5339532;26;33878;-84
2023/03/17 06:02:56;;;;;;;2.00;1.75;;;;;;;2.60;51.07;100841.00;5341759;26;32791;-86
2023/03/17 06:05:23;;;;;;;0.62;0.62;;;;;;;2.72;51.32;100841.09;5338798;26;33607;-87
2023/03/17 06:07:51;;;;;;;0.30;0.30;;;;;;;2.87;50.80;100835.06;5305613;26;32373;-87
2023/03/17 06:10:23;;;;;;;3.03;2.80;;;;;;;2.79;50.90;100835.03;5321370;26;32853;-87
2023/03/17 06:12:50;;;;;;;0.45;0.45;;;;;;;2.99;50.66;100839.44;5323610;26;32975;-87
2023/03/17 06:15:18;;;;;;;0.65;0.65;;;;;;;3.23;50.49;100842.16;5317728;26;32741;-86
2023/03/17 06:17:46;;;;;;;1.25;1.20;;;;;;;3.56;50.18;100836.16;5341481;26;33578;-85
2023/03/17 06:20:14;;;;;;;0.00;0.00;;;;;;;3.68;50.33;100842.25;5321242;26;33058;-86
2023/03/17 06:22:42;;;;;;;1.65;1.55;;;;;;;3.53;50.74;100838.75;5305651;26;33689;-85
2023/03/17 06:25:29;;;;;;;4.03;3.15;;;;;;;3.97;50.46;100850.09;5343035;26;33672;-83
2023/03/17 06:27:57;;;;;;;1.80;1.23;;;;;;;4.04;50.87;100850.09;5323350;26;34439;-84
2023/03/17 06:30:24;;;;;;;0.30;0.30;;;;;;;4.09;50.41;100850.97;5320836;26;34014;-84
2023/03/17 06:32:53;;;;;;;1.25;1.20;;;;;;;4.23;49.57;100852.72;5342704;26;32802;-85
2023/03/17 06:35:21;;;;;;;9.82;3.90;;;;;;;4.30;49.84;100854.44;5324868;26;33967;-85
2023/03/17 06:37:49;;;;;;;2.90;1.87;;;;;;;4.24;50.73;100857.06;5324934;26;34780;-84
2023/03/17 06:40:17;;;;;;;7.85;6.70;;;;;;;4.64;49.87;100857.84;5324568;26;33668;-84
2023/03/17 06:42:45;;;;;;;0.82;0.82;;;;;;;4.56;49.27;100852.66;5326394;26;32740;-84
2023/03/17 06:45:13;;;;;;;0.15;0.15;;;;;;;5.13;47.33;100852.44;5345244;26;34267;-84
2023/03/17 06:47:41;;;;;;;0.37;0.37;;;;;;;5.36;46.78;100866.31;5326863;26;33593;-84
2023/03/17 06:50:10;;;;;;;0.10;0.10;;;;;;;5.47;44.73;100861.00;5308405;26;33102;-84
2023/03/17 06:52:39;;;;;;;0.15;0.15;;;;;;;5.57;43.61;100843.47;5324202;26;32770;-85
2023/03/17 06:55:08;;;;;;;0.13;0.13;;;;;;;5.96;42.00;100852.81;5326179;26;33954;-85
2023/03/17 06:57:36;;;;;;;0.10;0.10;;;;;;;6.13;41.14;100856.19;5308582;26;34355;-85
2023/03/17 07:00:07;;;;;;;0.37;0.37;;;;;;;6.33;41.00;100853.38;5327548;26;34252;-84
2023/03/17 07:02:36;;;;;;;0.00;0.00;;;;;;;6.74;39.81;100857.34;5327588;26;33143;-84
2023/03/17 07:05:05;;;;;;;2.62;1.20;;;;;;;6.66;39.72;100861.78;5327415;26;33657;-85
2023/03/17 07:07:34;;;;;;;1.02;0.85;;;;;;;7.09;39.06;100856.91;5308028;26;33960;-84
2023/03/17 07:10:02;;;;;;;1.75;1.65;;;;;;;7.18;39.08;100853.28;5326567;26;34117;-85
2023/03/17 07:12:30;;;;;;;2.37;1.30;;;;;;;7.29;39.44;100861.03;5326519;26;33365;-85
2023/03/17 07:14:58;;;;;;;5.00;1.08;;;;;;;7.52;38.57;100861.56;5326740;26;33054;-85
2023/03/17 07:17:26;;;;;;;1.23;0.88;;;;;;;7.69;39.16;100863.94;5326776;26;34378;-86
2023/03/17 07:19:54;;;;;;;1.23;1.02;;;;;;;7.63;38.46;100864.03;5308304;26;33010;-86
2023/03/17 07:22:21;;;;;;;1.50;1.45;;;;;;;7.35;38.39;100863.56;5345292;26;33530;-85
2023/03/17 07:24:50;;;;;;;57.20;8.98;;;;;;;7.36;39.25;100871.44;5306587;26;32842;-84
2023/03/17 07:27:18;;;;;;;3.97;0.98;;;;;;;7.56;39.91;100867.66;5307729;26;33430;-85
2023/03/17 07:29:50;;;;;;;1.77;1.67;;;;;;;7.77;38.49;100862.06;5327830;26;34251;-85
2023/03/17 07:32:18;;;;;;;0.00;0.00;;;;;;;8.26;37.15;100871.81;5344286;26;32330;-84
2023/03/17 07:34:45;;;;;;;0.10;0.10;;;;;;;7.64;37.67;100865.78;5325800;26;34406;-85
2023/03/17 07:37:13;;;;;;;0.52;0.52;;;;;;;8.05;36.60;100867.78;5307631;26;32695;-85
2023/03/17 07:39:43;;;;;;;0.77;0.77;;;;;;;8.29;36.15;100873.53;5342140;26;33935;-85
2023/03/17 07:42:14;;;;;;;0.30;0.30;;;;;;;8.32;36.29;100874.34;5327439;26;33846;-85
2023/03/17 07:44:42;;;;;;;8.17;1.60;;;;;;;8.51;35.99;100866.16;5326691;26;32920;-85
2023/03/17 07:47:10;;;;;;;8.15;4.75;;;;;;;8.69;35.02;100881.63;5326377;26;34682;-86
2023/03/17 07:49:38;;;;;;;0.30;0.30;;;;;;;8.77;34.86;100871.78;5307299;26;33697;-86
2023/03/17 07:52:09;;;;;;;0.65;0.65;;;;;;;9.03;34.95;100873.94;5308839;26;33425;-85
2023/03/17 07:54:38;;;;;;;1.80;1.70;;;;;;;8.78;35.34;100875.28;5326435;26;33513;-86
2023/03/17 07:57:10;;;;;;;1.80;0.52;;;;;;;8.79;34.94;100880.53;5327057;26;33336;-86
2023/03/17 07:59:38;;;;;;;1.40;1.30;;;;;;;9.13;34.21;100879.88;5326232;26;33709;-85
2023/03/17 08:02:09;;;;;;;2.55;1.87;;;;;;;8.93;34.94;100878.50;5308248;26;32121;-86
2023/03/17 08:04:38;;;;;;;11.30;1.37;;;;;;;9.34;34.48;100876.78;5326567;26;33686;-86
2023/03/17 08:07:06;;;;;;;0.00;0.00;;;;;;;9.53;33.33;100866.69;5305263;26;33582;-86
2023/03/17 08:09:34;;;;;;;1.65;1.45;;;;;;;9.66;33.44;100862.88;5305867;26;33251;-85
2023/03/17 08:12:03;;;;;;;22.25;5.32;;;;;;;9.66;33.42;100867.28;5323628;26;32086;-86
2023/03/17 08:14:31;;;;;;;0.17;0.17;;;;;;;9.72;33.91;100868.00;5324343;26;34524;-84
2023/03/17 08:16:58;;;;;;;1.10;0.77;;;;;;;9.45;33.34;100868.66;5342804;26;33579;-86
2023/03/17 08:19:27;;;;;;;0.55;0.55;;;;;;;9.84;33.31;100853.69;5323777;26;34231;-85
2023/03/17 08:21:55;;;;;;;1.85;0.47;;;;;;;9.97;31.75;100857.75;5324601;26;34536;-86
2023/03/17 08:24:22;;;;;;;3.03;2.80;;;;;;;9.59;32.77;100850.75;5324274;26;33285;-85
2023/03/17 08:26:51;;;;;;;0.22;0.22;;;;;;;9.85;32.26;100858.03;5306271;26;34442;-87
2023/03/17 08:29:19;;;;;;;0.00;0.00;;;;;;;10.45;31.83;100853.97;5305917;26;33686;-85
2023/03/17 08:31:46;;;;;;;0.80;0.80;;;;;;;10.58;30.84;100849.19;5324443;26;32369;-84
2023/03/17 08:34:15;;;;;;;23.38;8.25;;;;;;;10.19;31.32;100859.84;5323312;26;33578;-85
2023/03/17 08:36:43;;;;;;;0.70;0.37;;;;;;;9.91;32.31;100857.03;5341857;26;33215;-85
2023/03/17 08:39:11;;;;;;;0.20;0.20;;;;;;;10.21;31.96;100850.16;5343212;26;34228;-85
2023/03/17 08:41:39;;;;;;;4.95;1.08;;;;;;;10.34;30.88;100851.56;5342676;26;33106;-85
2023/03/17 08:44:07;;;;;;;0.65;0.65;;;;;;;10.31;30.73;100845.53;5342775;26;32841;-85
2023/03/17 08:46:35;;;;;;;3.20;2.20;;;;;;;10.75;30.83;100850.47;5343563;26;34356;-85
2023/03/17 08:49:04;;;;;;;2.33;1.70;;;;;;;10.73;30.22;100849.66;5324006;26;33737;-85
2023/03/17 08:51:33;;;;;;;0.08;0.08;;;;;;;10.51;29.54;100849.38;5321883;26;33344;-84
2023/03/17 08:54:02;;;;;;;0.10;0.10;;;;;;;10.25;29.23;100851.81;5323925;26;33283;-85
2023/03/17 08:56:30;;;;;;;0.10;0.10;;;;;;;10.81;29.44;100852.06;5342520;26;33785;-84
2023/03/17 08:58:58;;;;;;;118.35;34.40;;;;;;;11.06;29.10;100846.94;5304905;26;32967;-85
2023/03/17 09:01:26;;;;;;;19.58;3.40;;;;;;;11.02;30.40;100843.56;5303626;26;33275;-85
2023/03/17 09:03:54;;;;;;;0.45;0.45;;;;;;;11.03;27.80;100847.91;5305646;26;32560;-86
2023/03/17 09:06:22;;;;;;;0.00;0.00;;;;;;;10.85;28.61;100848.44;5324264;26;33690;-84
2023/03/17 09:08:54;;;;;;;1.95;1.00;;;;;;;11.32;27.03;100846.19;5323703;26;33961;-85
2023/03/17 09:11:28;;;;;;;0.60;0.60;;;;;;;10.65;26.85;100859.56;5305834;26;32828;-85
2023/03/17 09:13:56;;;;;;;0.45;0.45;;;;;;;11.14;26.89;100849.38;5306005;26;33860;-85
2023/03/17 09:16:27;;;;;;;0.75;0.37;;;;;;;11.43;27.58;100848.50;5324096;26;33222;-85
2023/03/17 09:18:56;;;;;;;1.17;1.08;;;;;;;11.88;26.09;100843.59;5323821;26;32841;-85
2023/03/17 09:21:24;;;;;;;0.65;0.65;;;;;;;11.39;28.94;100839.78;5323741;26;32723;-85
2023/03/17 09:23:51;;;;;;;4.32;0.55;;;;;;;11.70;26.45;100839.72;5323714;26;33832;-86
2023/03/17 09:26:19;;;;;;;0.20;0.15;;;;;;;12.48;25.06;100828.31;5305358;26;34365;-86
2023/03/17 09:28:48;;;;;;;0.70;0.70;;;;;;;11.73;27.52;100828.19;5305269;26;33484;-85
2023/03/17 09:31:15;;;;;;;0.00;0.00;;;;;;;11.82;27.04;100817.34;5323186;26;32619;-86
2023/03/17 09:33:43;;;;;;;0.77;0.20;;;;;;;11.67;25.11;100829.22;5342031;26;34104;-87
2023/03/17 09:36:12;;;;;;;3.17;2.87;;;;;;;11.78;25.75;100831.56;5324110;26;34306;-86
2023/03/17 09:38:40;;;;;;;0.30;0.30;;;;;;;11.53;26.50;100829.66;5306329;26;32892;-86
2023/03/17 09:41:20;;;;;;;0.10;0.10;;;;;;;12.16;26.01;100826.81;5342431;26;32750;-87
2023/03/17 09:44:20;;;;;;;0.03;0.03;;;;;;;12.08;24.47;100831.47;5342616;26;33517;-86
2023/03/17 09:47:01;;;;;;;33.25;11.15;;;;;;;11.90;25.73;100825.88;5336597;26;33794;-87
2023/03/17 09:49:44;;;;;;;1.20;0.73;;;;;;;11.94;26.31;100818.69;5324039;26;33012;-88
2023/03/17 09:52:15;;;;;;;0.10;0.10;;;;;;;12.52;24.71;100816.69;5323519;26;32191;-87
2023/03/17 09:54:45;;;;;;;1.10;0.65;;;;;;;11.91;24.91;100810.84;5342535;26;32914;-87
2023/03/17 09:57:21;;;;;;;0.47;0.47;;;;;;;11.96;26.37;100809.81;5324332;26;33831;-86
2023/03/17 09:59:52;;;;;;;2.17;1.90;;;;;;;12.32;24.95;100813.91;5324383;26;33160;-87
2023/03/17 10:02:24;;;;;;;0.25;0.22;;;;;;;12.39;26.05;100803.03;5324645;26;33443;-87
2023/03/17 10:04:52;;;;;;;0.17;0.17;;;;;;;12.38;24.84;100801.28;5323907;26;33171;-87
2023/03/17 10:07:27;;;;;;;0.20;0.15;;;;;;;12.75;24.37;100800.84;5324137;26;32605;-86
2023/03/17 10:10:04;;;;;;;2.83;0.73;;;;;;;13.00;23.77;100794.62;5305700;26;32962;-87
2023/03/17 10:12:42;;;;;;;0.65;0.57;;;;;;;12.91;23.42;100795.81;5322757;26;32969;-87
2023/03/17 10:15:20;;;;;;;0.00;0.00;;;;;;;13.07;23.76;100807.59;5342639;26;33768;-86
2023/03/17 10:17:51;;;;;;;0.20;0.20;;;;;;;12.99;22.43;100798.19;5323841;26;33174;-86
2023/03/17 10:20:51;;;;;;;0.52;0.52;;;;;;;13.06;23.48;100805.88;5305953;26;33902;-87
2023/03/17 10:23:21;;;;;;;0.28;0.25;;;;;;;12.91;22.96;100790.53;5324015;26;31834;-87
2023/03/17 10:25:48;;;;;;;0.70;0.70;;;;;;;12.86;22.61;100787.19;5306004;26;32864;-88
2023/03/17 10:28:19;;;;;;;0.45;0.20;;;;;;;12.78;22.28;100783.97;5342441;26;33796;-87
2023/03/17 10:30:47;;;;;;;54.17;16.50;;;;;;;12.46;23.06;100787.78;5362552;26;33345;-86
2023/03/17 10:33:15;;;;;;;3.22;0.60;;;;;;;12.62;26.74;100788.09;5324167;26;33156;-87
2023/03/17 10:35:43;;;;;;;0.00;0.00;;;;;;;12.91;23.69;100776.41;5343093;26;33891;-91
2023/03/17 10:38:19;;;;;;;0.25;0.25;;;;;;;13.19;23.38;100766.47;5324431;26;33627;-88
2023/03/17 10:40:56;;;;;;;0.68;0.50;;;;;;;12.90;25.25;100764.09;5324047;26;34089;-87
2023/03/17 10:43:30;;;;;;;79.72;12.70;;;;;;;13.05;23.48;100758.19;5323770;26;33442;-88
2023/03/17 10:46:02;;;;;;;1.75;1.65;;;;;;;13.53;24.05;100760.75;5324197;26;33912;-88
2023/03/17 10:48:34;;;;;;;0.32;0.17;;;;;;;13.33;24.73;100765.97;5342513;26;34793;-89
2023/03/17 10:51:10;;;;;;;0.75;0.73;;;;;;;13.06;24.18;100763.44;5323826;26;33888;-89
2023/03/17 10:53:42;;;;;;;2.03;1.20;;;;;;;12.79;25.40;100769.78;5323630;26;32540;-90
2023/03/17 10:56:20;;;;;;;0.15;0.15;;;;;;;12.62;23.92;100759.81;5343396;26;33895;-89
2023/03/17 10:58:50;;;;;;;0.75;0.70;;;;;;;13.05;24.26;100753.78;5323670;26;33285;-87
2023/03/17 11:01:35;;;;;;;0.60;0.28;;;;;;;13.40;23.01;100756.84;5324071;26;32617;-87
2023/03/17 11:04:19;;;;;;;1.12;0.47;;;;;;;13.50;26.30;100752.91;5324189;26;34119;-88
2023/03/17 11:06:50;;;;;;;1.48;1.37;;;;;;;13.87;23.39;100740.75;5342064;26;33628;-88
2023/03/17 11:09:18;;;;;;;0.17;0.17;;;;;;;14.17;22.45;100722.63;5323928;26;34017;-88
2023/03/17 11:11:48;;;;;;;0.40;0.40;;;;;;;14.10;22.97;100723.84;5305563;26;33528;-87
2023/03/17 11:14:18;;;;;;;0.00;0.00;;;;;;;14.67;22.00;100722.22;5305270;26;33497;-87
2023/03/17 11:16:53;;;;;;;0.88;0.88;;;;;;;14.51;22.21;100711.41;5342466;26;34088;-88
2023/03/17 11:19:30;;;;;;;0.20;0.20;;;;;;;14.55;21.41;100715.63;5323867;26;34099;-88
2023/03/17 11:22:05;;;;;;;0.47;0.47;;;;;;;14.29;21.80;100715.91;5305320;26;34012;-88
2023/03/17 11:24:50;;;;;;;1.10;0.82;;;;;;;13.26;22.49;100722.06;5342753;26;32792;-86
2023/03/17 11:27:31;;;;;;;0.10;0.10;;;;;;;14.18;21.55;100708.41;5323567;26;34740;-88
2023/03/17 11:30:16;;;;;;;0.10;0.10;;;;;;;13.45;22.03;100711.56;5323710;26;32540;-87
2023/03/17 11:32:49;;;;;;;0.30;0.30;;;;;;;13.65;21.61;100716.03;5341522;26;33498;-88
2023/03/17 11:35:23;;;;;;;0.52;0.17;;;;;;;14.07;22.16;100710.69;5323792;26;33740;-86
2023/03/17 11:38:16;;;;;;;1.08;0.30;;;;;;;14.25;23.86;100709.88;5326473;26;33254;-88
2023/03/17 11:41:01;;;;;;;0.52;0.43;;;;;;;14.60;22.40;100700.34;5365512;26;34052;-89
2023/03/17 11:43:47;;;;;;;0.70;0.70;;;;;;;15.04;21.63;100683.22;5346413;26;33213;-89
2023/03/17 11:46:21;;;;;;;3.55;3.20;;;;;;;15.28;21.94;100678.50;5363753;26;33081;-88